sensor_id;sensor_type;location;lat;lon;timestamp;temperature;humidity
19999;DHT22;10160;50.926;4.374;2023-06-14T00:01:37;21.50;99.90
19999;DHT22;10160;50.926;4.374;2023-06-14T00:04:03;21.40;99.90
19999;DHT22;10160;50.926;4.374;2023-06-14T00:06:31;21.30;99.90
19999;DHT22;10160;50.926;4.374;2023-06-14T00:08:59;21.40;99.90
19999;DHT22;10160;50.926;4.374;2023-06-14T00:11:24;21.50;99.90
19999;DHT22;10160;50.926;4.374;2023-06-14T00:13:52;21.60;99.90
19999;DHT22;10160;50.926;4.374;2023-06-14T00:16:18;21.70;99.90
19999;DHT22;10160;50.926;4.374;2023-06-14T00:18:45;21.60;99.90
19999;DHT22;10160;50.926;4.374;2023-06-14T00:21:11;21.60;99.90
19999;DHT22;10160;50.926;4.374;2023-06-14T00:23:37;21.60;99.90
19999;DHT22;10160;50.926;4.374;2023-06-14T00:26:03;21.50;99.90
19999;DHT22;10160;50.926;4.374;2023-06-14T00:28:29;21.40;99.90
19999;DHT22;10160;50.926;4.374;2023-06-14T00:30:54;21.20;99.90
19999;DHT22;10160;50.926;4.374;2023-06-14T00:33:20;21.20;99.90
19999;DHT22;10160;50.926;4.374;2023-06-14T00:35:46;21.20;99.90
19999;DHT22;10160;50.926;4.374;2023-06-14T00:38:12;21.30;99.90
19999;DHT22;10160;50.926;4.374;2023-06-14T00:40:38;21.20;99.90
19999;DHT22;10160;50.926;4.374;2023-06-14T00:43:04;21.30;99.90
19999;DHT22;10160;50.926;4.374;2023-06-14T00:45:30;21.30;99.90
19999;DHT22;10160;50.926;4.374;2023-06-14T00:47:57;21.10;99.90
19999;DHT22;10160;50.926;4.374;2023-06-14T00:50:23;21.00;99.90
19999;DHT22;10160;50.926;4.374;2023-06-14T00:52:49;20.80;99.90
19999;DHT22;10160;50.926;4.374;2023-06-14T00:55:16;20.80;99.90
19999;DHT22;10160;50.926;4.374;2023-06-14T00:57:41;20.90;99.90
19999;DHT22;10160;50.926;4.374;2023-06-14T01:00:08;21.00;99.90
19999;DHT22;10160;50.926;4.374;2023-06-14T01:02:37;21.00;99.90
19999;DHT22;10160;50.926;4.374;2023-06-14T01:05:03;21.00;99.90
19999;DHT22;10160;50.926;4.374;2023-06-14T01:10:32;20.90;99.90
19999;DHT22;10160;50.926;4.374;2023-06-14T01:15:30;20.80;99.90
19999;DHT22;10160;50.926;4.374;2023-06-14T01:17:57;20.60;99.90
19999;DHT22;10160;50.926;4.374;2023-06-14T01:20:29;20.50;99.90
19999;DHT22;10160;50.926;4.374;2023-06-14T01:22:55;20.50;99.90
19999;DHT22;10160;50.926;4.374;2023-06-14T01:25:21;20.60;99.90
19999;DHT22;10160;50.926;4.374;2023-06-14T01:27:53;20.50;99.90
19999;DHT22;10160;50.926;4.374;2023-06-14T01:30:20;20.50;99.90
19999;DHT22;10160;50.926;4.374;2023-06-14T01:32:47;20.40;99.90
19999;DHT22;10160;50.926;4.374;2023-06-14T01:35:13;20.50;99.90
19999;DHT22;10160;50.926;4.374;2023-06-14T01:37:40;20.50;99.90
19999;DHT22;10160;50.926;4.374;2023-06-14T01:40:07;20.60;99.90
19999;DHT22;10160;50.926;4.374;2023-06-14T01:42:37;20.60;99.90
19999;DHT22;10160;50.926;4.374;2023-06-14T01:45:04;20.50;99.90
19999;DHT22;10160;50.926;4.374;2023-06-14T01:47:31;20.40;99.90
19999;DHT22;10160;50.926;4.374;2023-06-14T01:49:58;20.30;99.90
19999;DHT22;10160;50.926;4.374;2023-06-14T01:52:24;20.30;99.90
19999;DHT22;10160;50.926;4.374;2023-06-14T01:54:50;20.20;99.90
19999;DHT22;10160;50.926;4.374;2023-06-14T01:57:16;20.20;99.90
19999;DHT22;10160;50.926;4.374;2023-06-14T01:59:41;20.00;99.90
19999;DHT22;10160;50.926;4.374;2023-06-14T02:02:07;20.10;99.90
19999;DHT22;10160;50.926;4.374;2023-06-14T02:04:33;20.10;99.90
19999;DHT22;10160;50.926;4.374;2023-06-14T02:06:59;20.10;99.90
19999;DHT22;10160;50.926;4.374;2023-06-14T02:09:25;20.10;99.90
19999;DHT22;10160;50.926;4.374;2023-06-14T02:11:51;20.10;99.90
19999;DHT22;10160;50.926;4.374;2023-06-14T02:14:17;20.00;99.90
19999;DHT22;10160;50.926;4.374;2023-06-14T02:16:43;19.90;99.90
19999;DHT22;10160;50.926;4.374;2023-06-14T02:19:15;20.00;99.90
19999;DHT22;10160;50.926;4.374;2023-06-14T02:21:42;20.00;99.90
19999;DHT22;10160;50.926;4.374;2023-06-14T02:24:08;19.90;99.90
19999;DHT22;10160;50.926;4.374;2023-06-14T02:26:33;20.00;99.90
19999;DHT22;10160;50.926;4.374;2023-06-14T02:28:59;19.90;99.90
19999;DHT22;10160;50.926;4.374;2023-06-14T02:31:25;19.90;99.90
19999;DHT22;10160;50.926;4.374;2023-06-14T02:33:51;19.90;99.90
19999;DHT22;10160;50.926;4.374;2023-06-14T02:36:16;19.90;99.90
19999;DHT22;10160;50.926;4.374;2023-06-14T02:38:42;19.90;99.90
19999;DHT22;10160;50.926;4.374;2023-06-14T02:41:08;19.80;99.90
19999;DHT22;10160;50.926;4.374;2023-06-14T02:43:33;19.80;99.90
19999;DHT22;10160;50.926;4.374;2023-06-14T02:45:59;19.80;99.90
19999;DHT22;10160;50.926;4.374;2023-06-14T02:48:25;19.80;99.90
19999;DHT22;10160;50.926;4.374;2023-06-14T02:50:50;19.80;99.90
19999;DHT22;10160;50.926;4.374;2023-06-14T02:53:16;19.80;99.90
19999;DHT22;10160;50.926;4.374;2023-06-14T02:55:42;19.70;99.90
19999;DHT22;10160;50.926;4.374;2023-06-14T02:58:08;19.60;99.90
19999;DHT22;10160;50.926;4.374;2023-06-14T03:00:34;19.60;99.90
19999;DHT22;10160;50.926;4.374;2023-06-14T03:03:01;19.60;99.90
19999;DHT22;10160;50.926;4.374;2023-06-14T03:05:27;19.60;99.90
19999;DHT22;10160;50.926;4.374;2023-06-14T03:07:53;19.60;99.90
19999;DHT22;10160;50.926;4.374;2023-06-14T03:10:20;19.60;99.90
19999;DHT22;10160;50.926;4.374;2023-06-14T03:12:47;19.60;99.90
19999;DHT22;10160;50.926;4.374;2023-06-14T03:15:13;19.50;99.90
19999;DHT22;10160;50.926;4.374;2023-06-14T03:17:39;19.50;99.90
19999;DHT22;10160;50.926;4.374;2023-06-14T03:20:05;19.50;99.90
19999;DHT22;10160;50.926;4.374;2023-06-14T03:22:31;19.40;99.90
19999;DHT22;10160;50.926;4.374;2023-06-14T03:24:59;19.50;99.90
19999;DHT22;10160;50.926;4.374;2023-06-14T03:27:26;19.40;99.90
19999;DHT22;10160;50.926;4.374;2023-06-14T03:29:54;19.30;99.90
19999;DHT22;10160;50.926;4.374;2023-06-14T03:32:19;19.40;99.90
19999;DHT22;10160;50.926;4.374;2023-06-14T03:34:45;19.30;99.90
19999;DHT22;10160;50.926;4.374;2023-06-14T03:37:11;19.30;99.90
19999;DHT22;10160;50.926;4.374;2023-06-14T03:39:36;19.20;99.90
19999;DHT22;10160;50.926;4.374;2023-06-14T03:42:02;19.30;99.90
19999;DHT22;10160;50.926;4.374;2023-06-14T03:44:31;19.20;99.90
19999;DHT22;10160;50.926;4.374;2023-06-14T03:46:57;19.20;99.90
19999;DHT22;10160;50.926;4.374;2023-06-14T03:49:22;19.10;99.90
19999;DHT22;10160;50.926;4.374;2023-06-14T03:51:48;19.10;99.90
19999;DHT22;10160;50.926;4.374;2023-06-14T03:54:16;19.10;99.90
19999;DHT22;10160;50.926;4.374;2023-06-14T03:56:42;19.20;99.90
19999;DHT22;10160;50.926;4.374;2023-06-14T03:59:07;19.10;99.90
19999;DHT22;10160;50.926;4.374;2023-06-14T04:01:33;19.10;99.90
19999;DHT22;10160;50.926;4.374;2023-06-14T04:03:59;19.10;99.90
19999;DHT22;10160;50.926;4.374;2023-06-14T04:06:25;19.10;99.90
19999;DHT22;10160;50.926;4.374;2023-06-14T04:08:58;19.10;99.90
19999;DHT22;10160;50.926;4.374;2023-06-14T04:11:27;19.20;99.90
19999;DHT22;10160;50.926;4.374;2023-06-14T04:13:52;19.20;99.90
19999;DHT22;10160;50.926;4.374;2023-06-14T04:16:19;19.20;99.90
19999;DHT22;10160;50.926;4.374;2023-06-14T04:18:45;19.30;99.90
19999;DHT22;10160;50.926;4.374;2023-06-14T04:21:12;19.30;99.90
19999;DHT22;10160;50.926;4.374;2023-06-14T04:23:37;19.30;99.90
19999;DHT22;10160;50.926;4.374;2023-06-14T04:26:03;19.30;99.90
19999;DHT22;10160;50.926;4.374;2023-06-14T04:28:29;19.30;99.90
19999;DHT22;10160;50.926;4.374;2023-06-14T04:30:55;19.40;99.90
19999;DHT22;10160;50.926;4.374;2023-06-14T04:33:21;19.40;99.90
19999;DHT22;10160;50.926;4.374;2023-06-14T04:35:48;19.40;99.90
19999;DHT22;10160;50.926;4.374;2023-06-14T04:38:14;19.40;99.90
19999;DHT22;10160;50.926;4.374;2023-06-14T04:40:40;19.40;99.90
19999;DHT22;10160;50.926;4.374;2023-06-14T04:43:11;19.40;99.90
19999;DHT22;10160;50.926;4.374;2023-06-14T04:45:42;19.40;99.90
19999;DHT22;10160;50.926;4.374;2023-06-14T04:48:11;19.40;99.90
19999;DHT22;10160;50.926;4.374;2023-06-14T04:50:37;19.50;99.90
19999;DHT22;10160;50.926;4.374;2023-06-14T04:53:05;19.50;99.90
19999;DHT22;10160;50.926;4.374;2023-06-14T04:55:32;19.30;99.90
19999;DHT22;10160;50.926;4.374;2023-06-14T04:57:58;19.30;99.90
19999;DHT22;10160;50.926;4.374;2023-06-14T05:00:23;19.30;99.90
19999;DHT22;10160;50.926;4.374;2023-06-14T05:02:49;19.50;99.90
19999;DHT22;10160;50.926;4.374;2023-06-14T05:05:17;19.50;99.90
19999;DHT22;10160;50.926;4.374;2023-06-14T05:07:43;19.50;99.90
19999;DHT22;10160;50.926;4.374;2023-06-14T05:10:09;19.10;99.90
19999;DHT22;10160;50.926;4.374;2023-06-14T05:12:35;19.20;99.90
19999;DHT22;10160;50.926;4.374;2023-06-14T05:15:01;18.90;99.90
19999;DHT22;10160;50.926;4.374;2023-06-14T05:17:26;18.80;99.90
19999;DHT22;10160;50.926;4.374;2023-06-14T05:19:53;18.70;99.90
19999;DHT22;10160;50.926;4.374;2023-06-14T05:22:21;18.70;99.90
19999;DHT22;10160;50.926;4.374;2023-06-14T05:24:46;18.70;99.90
19999;DHT22;10160;50.926;4.374;2023-06-14T05:27:13;18.90;99.90
19999;DHT22;10160;50.926;4.374;2023-06-14T05:29:39;19.00;99.90
19999;DHT22;10160;50.926;4.374;2023-06-14T05:32:05;18.90;99.90
19999;DHT22;10160;50.926;4.374;2023-06-14T05:34:31;18.70;99.90
19999;DHT22;10160;50.926;4.374;2023-06-14T05:36:57;18.80;99.90
19999;DHT22;10160;50.926;4.374;2023-06-14T05:39:22;18.90;99.90
19999;DHT22;10160;50.926;4.374;2023-06-14T05:41:49;19.00;99.90
19999;DHT22;10160;50.926;4.374;2023-06-14T05:44:15;19.00;99.90
19999;DHT22;10160;50.926;4.374;2023-06-14T05:46:41;18.90;99.90
19999;DHT22;10160;50.926;4.374;2023-06-14T05:49:07;19.00;99.90
19999;DHT22;10160;50.926;4.374;2023-06-14T05:51:32;19.10;99.90
19999;DHT22;10160;50.926;4.374;2023-06-14T05:53:59;19.10;99.90
19999;DHT22;10160;50.926;4.374;2023-06-14T05:56:25;19.30;99.90
19999;DHT22;10160;50.926;4.374;2023-06-14T05:58:51;19.60;99.90
19999;DHT22;10160;50.926;4.374;2023-06-14T06:01:16;19.60;99.90
19999;DHT22;10160;50.926;4.374;2023-06-14T06:03:42;19.80;99.90
19999;DHT22;10160;50.926;4.374;2023-06-14T06:06:11;19.80;99.90
19999;DHT22;10160;50.926;4.374;2023-06-14T06:08:37;20.10;99.90
19999;DHT22;10160;50.926;4.374;2023-06-14T06:11:03;20.00;99.90
19999;DHT22;10160;50.926;4.374;2023-06-14T06:13:28;20.00;99.90
19999;DHT22;10160;50.926;4.374;2023-06-14T06:15:54;19.90;99.90
19999;DHT22;10160;50.926;4.374;2023-06-14T06:18:19;19.80;99.90
19999;DHT22;10160;50.926;4.374;2023-06-14T06:20:45;20.10;99.90
19999;DHT22;10160;50.926;4.374;2023-06-14T06:23:12;20.30;99.90
19999;DHT22;10160;50.926;4.374;2023-06-14T06:25:38;20.70;99.90
19999;DHT22;10160;50.926;4.374;2023-06-14T06:28:03;21.10;99.90
19999;DHT22;10160;50.926;4.374;2023-06-14T06:30:29;21.10;99.90
19999;DHT22;10160;50.926;4.374;2023-06-14T06:32:55;21.30;99.90
19999;DHT22;10160;50.926;4.374;2023-06-14T06:35:23;21.70;99.90
19999;DHT22;10160;50.926;4.374;2023-06-14T06:37:49;22.00;99.90
19999;DHT22;10160;50.926;4.374;2023-06-14T06:40:14;22.10;99.90
19999;DHT22;10160;50.926;4.374;2023-06-14T06:42:40;22.30;99.90
19999;DHT22;10160;50.926;4.374;2023-06-14T06:45:06;22.60;99.90
19999;DHT22;10160;50.926;4.374;2023-06-14T06:47:32;22.80;99.90
19999;DHT22;10160;50.926;4.374;2023-06-14T06:49:58;23.10;99.90
19999;DHT22;10160;50.926;4.374;2023-06-14T06:52:23;23.30;99.90
19999;DHT22;10160;50.926;4.374;2023-06-14T06:54:49;22.90;99.90
19999;DHT22;10160;50.926;4.374;2023-06-14T06:57:16;22.90;99.90
19999;DHT22;10160;50.926;4.374;2023-06-14T06:59:41;22.80;99.90
19999;DHT22;10160;50.926;4.374;2023-06-14T07:02:07;22.90;99.90
19999;DHT22;10160;50.926;4.374;2023-06-14T07:04:33;22.40;99.90
19999;DHT22;10160;50.926;4.374;2023-06-14T07:06:58;22.40;99.90
19999;DHT22;10160;50.926;4.374;2023-06-14T07:09:24;22.50;99.90
19999;DHT22;10160;50.926;4.374;2023-06-14T07:11:50;22.60;99.90
19999;DHT22;10160;50.926;4.374;2023-06-14T07:14:16;22.40;99.90
19999;DHT22;10160;50.926;4.374;2023-06-14T07:16:42;22.30;99.90
19999;DHT22;10160;50.926;4.374;2023-06-14T07:19:08;22.10;99.90
19999;DHT22;10160;50.926;4.374;2023-06-14T07:21:35;22.10;99.90
19999;DHT22;10160;50.926;4.374;2023-06-14T07:24:03;22.30;99.90
19999;DHT22;10160;50.926;4.374;2023-06-14T07:26:29;22.40;99.90
19999;DHT22;10160;50.926;4.374;2023-06-14T07:28:54;22.50;99.90
19999;DHT22;10160;50.926;4.374;2023-06-14T07:31:20;22.60;99.90
19999;DHT22;10160;50.926;4.374;2023-06-14T07:33:46;22.70;99.90
19999;DHT22;10160;50.926;4.374;2023-06-14T07:36:12;23.00;99.90
19999;DHT22;10160;50.926;4.374;2023-06-14T07:38:37;22.80;99.90
19999;DHT22;10160;50.926;4.374;2023-06-14T07:41:05;22.80;99.90
19999;DHT22;10160;50.926;4.374;2023-06-14T07:43:31;22.90;99.90
19999;DHT22;10160;50.926;4.374;2023-06-14T07:45:57;22.80;99.90
19999;DHT22;10160;50.926;4.374;2023-06-14T07:48:23;22.90;99.90
19999;DHT22;10160;50.926;4.374;2023-06-14T07:50:48;23.20;99.90
19999;DHT22;10160;50.926;4.374;2023-06-14T07:53:14;23.30;99.90
19999;DHT22;10160;50.926;4.374;2023-06-14T07:55:40;23.50;99.90
19999;DHT22;10160;50.926;4.374;2023-06-14T07:58:07;23.20;99.90
19999;DHT22;10160;50.926;4.374;2023-06-14T08:00:33;23.20;99.90
19999;DHT22;10160;50.926;4.374;2023-06-14T08:02:59;22.90;99.90
19999;DHT22;10160;50.926;4.374;2023-06-14T08:05:25;23.00;99.90
19999;DHT22;10160;50.926;4.374;2023-06-14T08:07:54;23.30;99.90
19999;DHT22;10160;50.926;4.374;2023-06-14T08:10:21;23.40;99.90
19999;DHT22;10160;50.926;4.374;2023-06-14T08:12:47;23.20;99.90
19999;DHT22;10160;50.926;4.374;2023-06-14T08:15:14;23.40;99.90
19999;DHT22;10160;50.926;4.374;2023-06-14T08:17:40;23.70;99.90
19999;DHT22;10160;50.926;4.374;2023-06-14T08:20:06;24.00;99.90
19999;DHT22;10160;50.926;4.374;2023-06-14T08:22:32;24.10;99.90
19999;DHT22;10160;50.926;4.374;2023-06-14T08:25:01;23.80;99.90
19999;DHT22;10160;50.926;4.374;2023-06-14T08:27:27;23.90;99.90
19999;DHT22;10160;50.926;4.374;2023-06-14T08:29:53;24.40;99.90
19999;DHT22;10160;50.926;4.374;2023-06-14T08:32:19;24.70;99.90
19999;DHT22;10160;50.926;4.374;2023-06-14T08:34:44;25.10;99.90
19999;DHT22;10160;50.926;4.374;2023-06-14T08:37:10;25.30;99.90
19999;DHT22;10160;50.926;4.374;2023-06-14T08:39:36;25.10;99.90
19999;DHT22;10160;50.926;4.374;2023-06-14T08:42:03;25.20;99.90
19999;DHT22;10160;50.926;4.374;2023-06-14T08:44:30;25.10;99.90
19999;DHT22;10160;50.926;4.374;2023-06-14T08:46:56;25.10;99.90
19999;DHT22;10160;50.926;4.374;2023-06-14T08:49:25;25.30;99.90
19999;DHT22;10160;50.926;4.374;2023-06-14T08:51:58;25.60;99.90
19999;DHT22;10160;50.926;4.374;2023-06-14T08:54:27;25.50;99.90
19999;DHT22;10160;50.926;4.374;2023-06-14T08:56:55;25.70;99.90
19999;DHT22;10160;50.926;4.374;2023-06-14T08:59:27;25.90;99.90
19999;DHT22;10160;50.926;4.374;2023-06-14T09:01:53;25.70;99.90
19999;DHT22;10160;50.926;4.374;2023-06-14T09:04:23;25.60;99.90
19999;DHT22;10160;50.926;4.374;2023-06-14T09:06:49;25.80;99.90
19999;DHT22;10160;50.926;4.374;2023-06-14T09:09:20;25.90;99.90
19999;DHT22;10160;50.926;4.374;2023-06-14T09:11:49;26.00;99.90
19999;DHT22;10160;50.926;4.374;2023-06-14T09:14:15;26.20;99.90
19999;DHT22;10160;50.926;4.374;2023-06-14T09:16:41;26.20;99.90
19999;DHT22;10160;50.926;4.374;2023-06-14T09:19:07;26.30;99.90
19999;DHT22;10160;50.926;4.374;2023-06-14T09:21:35;26.20;99.90
19999;DHT22;10160;50.926;4.374;2023-06-14T09:24:02;26.30;99.90
19999;DHT22;10160;50.926;4.374;2023-06-14T09:26:29;26.50;99.90
19999;DHT22;10160;50.926;4.374;2023-06-14T09:28:55;26.10;99.90
19999;DHT22;10160;50.926;4.374;2023-06-14T09:31:21;26.40;99.90
19999;DHT22;10160;50.926;4.374;2023-06-14T09:33:50;26.70;99.90
19999;DHT22;10160;50.926;4.374;2023-06-14T09:38:52;27.20;99.90
19999;DHT22;10160;50.926;4.374;2023-06-14T09:41:18;27.20;99.90
19999;DHT22;10160;50.926;4.374;2023-06-14T09:43:46;27.50;99.90
19999;DHT22;10160;50.926;4.374;2023-06-14T09:46:12;27.40;99.90
19999;DHT22;10160;50.926;4.374;2023-06-14T09:48:38;26.80;99.90
19999;DHT22;10160;50.926;4.374;2023-06-14T09:51:11;26.70;99.90
19999;DHT22;10160;50.926;4.374;2023-06-14T09:53:41;26.50;99.90
19999;DHT22;10160;50.926;4.374;2023-06-14T09:56:08;26.30;99.90
19999;DHT22;10160;50.926;4.374;2023-06-14T09:58:36;26.20;99.90
19999;DHT22;10160;50.926;4.374;2023-06-14T10:01:05;26.00;99.90
19999;DHT22;10160;50.926;4.374;2023-06-14T10:03:34;25.90;99.90
19999;DHT22;10160;50.926;4.374;2023-06-14T10:06:03;26.20;99.90
19999;DHT22;10160;50.926;4.374;2023-06-14T10:08:32;26.60;99.90
19999;DHT22;10160;50.926;4.374;2023-06-14T10:11:01;26.30;99.90
19999;DHT22;10160;50.926;4.374;2023-06-14T10:13:30;26.90;99.90
19999;DHT22;10160;50.926;4.374;2023-06-14T10:16:16;26.80;99.90
19999;DHT22;10160;50.926;4.374;2023-06-14T10:18:59;26.70;98.90
19999;DHT22;10160;50.926;4.374;2023-06-14T10:24:16;27.40;99.90
19999;DHT22;10160;50.926;4.374;2023-06-14T10:27:13;27.60;97.90
19999;DHT22;10160;50.926;4.374;2023-06-14T10:30:02;27.60;96.30
19999;DHT22;10160;50.926;4.374;2023-06-14T10:32:28;27.60;95.00
19999;DHT22;10160;50.926;4.374;2023-06-14T10:34:56;27.40;94.90
19999;DHT22;10160;50.926;4.374;2023-06-14T10:37:22;27.50;94.50
19999;DHT22;10160;50.926;4.374;2023-06-14T10:39:50;27.30;95.00
19999;DHT22;10160;50.926;4.374;2023-06-14T10:42:16;27.30;95.30
19999;DHT22;10160;50.926;4.374;2023-06-14T10:44:42;27.70;93.70
19999;DHT22;10160;50.926;4.374;2023-06-14T10:47:10;27.40;92.70
19999;DHT22;10160;50.926;4.374;2023-06-14T10:49:44;28.10;93.50
19999;DHT22;10160;50.926;4.374;2023-06-14T10:52:12;28.30;92.20
19999;DHT22;10160;50.926;4.374;2023-06-14T10:55:16;28.30;95.30
19999;DHT22;10160;50.926;4.374;2023-06-14T10:58:01;29.00;92.40
19999;DHT22;10160;50.926;4.374;2023-06-14T11:00:29;29.80;92.20
19999;DHT22;10160;50.926;4.374;2023-06-14T11:05:30;28.60;89.80
19999;DHT22;10160;50.926;4.374;2023-06-14T11:10:45;27.60;90.00
19999;DHT22;10160;50.926;4.374;2023-06-14T11:13:11;27.20;90.00
19999;DHT22;10160;50.926;4.374;2023-06-14T11:15:37;27.10;90.60
19999;DHT22;10160;50.926;4.374;2023-06-14T11:18:05;26.90;90.10
19999;DHT22;10160;50.926;4.374;2023-06-14T11:20:33;28.00;92.50
19999;DHT22;10160;50.926;4.374;2023-06-14T11:23:00;27.80;88.20
19999;DHT22;10160;50.926;4.374;2023-06-14T11:25:26;28.00;86.80
19999;DHT22;10160;50.926;4.374;2023-06-14T11:27:54;28.10;89.10
19999;DHT22;10160;50.926;4.374;2023-06-14T11:30:20;28.20;86.70
19999;DHT22;10160;50.926;4.374;2023-06-14T11:32:50;27.90;84.10
19999;DHT22;10160;50.926;4.374;2023-06-14T11:35:17;28.00;86.90
19999;DHT22;10160;50.926;4.374;2023-06-14T11:37:44;27.40;86.70
19999;DHT22;10160;50.926;4.374;2023-06-14T11:40:11;27.50;85.40
19999;DHT22;10160;50.926;4.374;2023-06-14T11:42:41;27.30;86.90
19999;DHT22;10160;50.926;4.374;2023-06-14T11:45:11;27.70;87.10
19999;DHT22;10160;50.926;4.374;2023-06-14T11:47:39;28.10;88.50
19999;DHT22;10160;50.926;4.374;2023-06-14T11:50:07;28.20;85.90
19999;DHT22;10160;50.926;4.374;2023-06-14T11:52:34;28.80;83.30
19999;DHT22;10160;50.926;4.374;2023-06-14T11:55:01;28.90;82.70
19999;DHT22;10160;50.926;4.374;2023-06-14T11:57:30;28.40;82.90
19999;DHT22;10160;50.926;4.374;2023-06-14T11:59:55;29.30;85.20
19999;DHT22;10160;50.926;4.374;2023-06-14T12:02:22;30.20;81.90
19999;DHT22;10160;50.926;4.374;2023-06-14T12:04:48;30.70;82.80
19999;DHT22;10160;50.926;4.374;2023-06-14T12:07:17;30.10;78.10
19999;DHT22;10160;50.926;4.374;2023-06-14T12:12:23;30.00;77.70
19999;DHT22;10160;50.926;4.374;2023-06-14T12:14:55;30.40;73.40
19999;DHT22;10160;50.926;4.374;2023-06-14T12:17:22;30.80;78.30
19999;DHT22;10160;50.926;4.374;2023-06-14T12:19:49;29.60;72.00
19999;DHT22;10160;50.926;4.374;2023-06-14T12:22:16;28.70;73.00
19999;DHT22;10160;50.926;4.374;2023-06-14T12:24:45;28.80;75.50
19999;DHT22;10160;50.926;4.374;2023-06-14T12:27:11;29.10;77.30
19999;DHT22;10160;50.926;4.374;2023-06-14T12:29:42;28.70;74.60
19999;DHT22;10160;50.926;4.374;2023-06-14T12:32:11;28.70;74.90
19999;DHT22;10160;50.926;4.374;2023-06-14T12:34:37;29.20;76.20
19999;DHT22;10160;50.926;4.374;2023-06-14T12:37:03;30.10;78.00
19999;DHT22;10160;50.926;4.374;2023-06-14T12:39:30;30.40;72.80
19999;DHT22;10160;50.926;4.374;2023-06-14T12:41:57;30.40;70.20
19999;DHT22;10160;50.926;4.374;2023-06-14T12:44:23;31.00;70.80
19999;DHT22;10160;50.926;4.374;2023-06-14T12:46:49;29.70;73.30
19999;DHT22;10160;50.926;4.374;2023-06-14T12:49:16;29.40;75.60
19999;DHT22;10160;50.926;4.374;2023-06-14T12:51:42;29.70;72.50
19999;DHT22;10160;50.926;4.374;2023-06-14T12:54:08;29.90;71.80
19999;DHT22;10160;50.926;4.374;2023-06-14T12:56:34;29.80;70.30
19999;DHT22;10160;50.926;4.374;2023-06-14T12:59:00;30.00;70.90
19999;DHT22;10160;50.926;4.374;2023-06-14T13:01:26;30.10;71.10
19999;DHT22;10160;50.926;4.374;2023-06-14T13:03:51;29.80;69.90
19999;DHT22;10160;50.926;4.374;2023-06-14T13:06:21;30.00;72.20
19999;DHT22;10160;50.926;4.374;2023-06-14T13:08:48;30.50;70.00
19999;DHT22;10160;50.926;4.374;2023-06-14T13:11:14;30.40;69.30
19999;DHT22;10160;50.926;4.374;2023-06-14T13:13:40;31.10;72.20
19999;DHT22;10160;50.926;4.374;2023-06-14T13:16:06;31.60;68.00
19999;DHT22;10160;50.926;4.374;2023-06-14T13:18:32;32.00;65.70
19999;DHT22;10160;50.926;4.374;2023-06-14T13:20:57;32.00;63.40
19999;DHT22;10160;50.926;4.374;2023-06-14T13:23:23;30.30;63.00
19999;DHT22;10160;50.926;4.374;2023-06-14T13:25:49;29.40;67.20
19999;DHT22;10160;50.926;4.374;2023-06-14T13:28:17;29.50;67.00
19999;DHT22;10160;50.926;4.374;2023-06-14T13:30:43;29.80;70.20
19999;DHT22;10160;50.926;4.374;2023-06-14T13:33:09;29.70;69.40
19999;DHT22;10160;50.926;4.374;2023-06-14T13:35:35;30.20;67.90
19999;DHT22;10160;50.926;4.374;2023-06-14T13:38:01;30.10;64.60
19999;DHT22;10160;50.926;4.374;2023-06-14T13:40:26;29.90;68.40
19999;DHT22;10160;50.926;4.374;2023-06-14T13:42:52;30.30;65.90
19999;DHT22;10160;50.926;4.374;2023-06-14T13:45:17;30.40;62.20
19999;DHT22;10160;50.926;4.374;2023-06-14T13:47:43;30.00;63.60
19999;DHT22;10160;50.926;4.374;2023-06-14T13:50:10;29.70;62.30
19999;DHT22;10160;50.926;4.374;2023-06-14T13:52:35;30.30;64.30
19999;DHT22;10160;50.926;4.374;2023-06-14T13:55:01;30.30;65.20
19999;DHT22;10160;50.926;4.374;2023-06-14T13:57:27;31.10;65.70
19999;DHT22;10160;50.926;4.374;2023-06-14T13:59:53;30.90;61.70
19999;DHT22;10160;50.926;4.374;2023-06-14T14:02:21;30.60;61.50
19999;DHT22;10160;50.926;4.374;2023-06-14T14:04:49;30.20;60.70
19999;DHT22;10160;50.926;4.374;2023-06-14T14:07:18;30.00;60.60
19999;DHT22;10160;50.926;4.374;2023-06-14T14:09:45;30.00;61.20
19999;DHT22;10160;50.926;4.374;2023-06-14T14:12:12;30.20;59.90
19999;DHT22;10160;50.926;4.374;2023-06-14T14:14:38;30.40;62.20
19999;DHT22;10160;50.926;4.374;2023-06-14T14:17:03;30.80;61.10
19999;DHT22;10160;50.926;4.374;2023-06-14T14:19:30;30.50;57.50
19999;DHT22;10160;50.926;4.374;2023-06-14T14:21:55;30.30;57.10
19999;DHT22;10160;50.926;4.374;2023-06-14T14:24:21;29.20;57.80
19999;DHT22;10160;50.926;4.374;2023-06-14T14:26:47;29.20;61.80
19999;DHT22;10160;50.926;4.374;2023-06-14T14:29:14;28.50;59.60
19999;DHT22;10160;50.926;4.374;2023-06-14T14:31:40;28.80;60.40
19999;DHT22;10160;50.926;4.374;2023-06-14T14:34:08;29.60;61.90
19999;DHT22;10160;50.926;4.374;2023-06-14T14:36:34;30.30;60.70
19999;DHT22;10160;50.926;4.374;2023-06-14T14:39:03;30.90;61.40
19999;DHT22;10160;50.926;4.374;2023-06-14T14:41:29;31.20;56.00
19999;DHT22;10160;50.926;4.374;2023-06-14T14:43:55;29.80;56.10
19999;DHT22;10160;50.926;4.374;2023-06-14T14:46:20;30.00;59.70
19999;DHT22;10160;50.926;4.374;2023-06-14T14:48:46;30.40;56.60
19999;DHT22;10160;50.926;4.374;2023-06-14T14:51:24;28.90;56.50
19999;DHT22;10160;50.926;4.374;2023-06-14T14:53:49;29.50;59.00
19999;DHT22;10160;50.926;4.374;2023-06-14T14:56:15;29.80;59.50
19999;DHT22;10160;50.926;4.374;2023-06-14T14:58:41;29.10;56.50
19999;DHT22;10160;50.926;4.374;2023-06-14T15:01:07;29.00;57.40
19999;DHT22;10160;50.926;4.374;2023-06-14T15:03:32;29.00;56.30
19999;DHT22;10160;50.926;4.374;2023-06-14T15:05:58;29.40;57.50
19999;DHT22;10160;50.926;4.374;2023-06-14T15:08:24;29.60;59.20
19999;DHT22;10160;50.926;4.374;2023-06-14T15:10:49;29.40;57.60
19999;DHT22;10160;50.926;4.374;2023-06-14T15:13:15;29.50;55.60
19999;DHT22;10160;50.926;4.374;2023-06-14T15:15:41;29.20;55.90
19999;DHT22;10160;50.926;4.374;2023-06-14T15:18:06;29.50;55.90
19999;DHT22;10160;50.926;4.374;2023-06-14T15:20:32;29.20;56.60
19999;DHT22;10160;50.926;4.374;2023-06-14T15:23:01;28.70;58.20
19999;DHT22;10160;50.926;4.374;2023-06-14T15:25:30;28.40;59.00
19999;DHT22;10160;50.926;4.374;2023-06-14T15:27:57;28.60;60.70
19999;DHT22;10160;50.926;4.374;2023-06-14T15:30:23;28.90;60.20
19999;DHT22;10160;50.926;4.374;2023-06-14T15:32:49;28.80;59.00
19999;DHT22;10160;50.926;4.374;2023-06-14T15:35:17;28.80;59.80
19999;DHT22;10160;50.926;4.374;2023-06-14T15:37:48;28.90;59.20
19999;DHT22;10160;50.926;4.374;2023-06-14T15:40:14;28.60;58.60
19999;DHT22;10160;50.926;4.374;2023-06-14T15:42:40;28.60;60.50
19999;DHT22;10160;50.926;4.374;2023-06-14T15:45:06;29.10;60.80
19999;DHT22;10160;50.926;4.374;2023-06-14T15:47:32;29.30;58.80